createdAt,value
2023-04-25T00:00:18.561Z,99195.96
2023-04-25T00:02:45.347Z,99188.42
2023-04-25T00:05:12.591Z,99188.27
2023-04-25T00:07:39.622Z,99193.03
2023-04-25T00:10:07.304Z,99188.09
2023-04-25T00:12:34.538Z,99181.31
2023-04-25T00:15:01.443Z,99182.80
2023-04-25T00:17:28.282Z,99175.55
2023-04-25T00:19:55.209Z,99170.83
2023-04-25T00:22:22.040Z,99163.92
2023-04-25T00:24:48.905Z,99161.11
2023-04-25T00:27:15.581Z,99162.95
2023-04-25T00:29:42.267Z,99161.34
2023-04-25T00:32:09.825Z,99157.60
2023-04-25T00:34:37.009Z,99159.70
2023-04-25T00:37:03.770Z,99156.48
2023-04-25T00:39:30.604Z,99155.92
2023-04-25T00:41:57.272Z,99154.85
2023-04-25T00:44:23.960Z,99152.69
2023-04-25T00:46:51.398Z,99151.97
2023-04-25T00:49:18.449Z,99154.46
2023-04-25T00:51:45.760Z,99156.56
2023-04-25T00:54:13.357Z,99152.09
2023-04-25T00:56:40.477Z,99153.10
2023-04-25T00:59:07.410Z,99152.98
2023-04-25T01:01:34.122Z,99150.13
2023-04-25T01:04:01.195Z,99150.03
2023-04-25T01:06:28.491Z,99149.96
2023-04-25T01:08:55.522Z,99148.83
2023-04-25T01:11:22.251Z,99143.44
2023-04-25T01:13:49.543Z,99142.57
2023-04-25T01:16:16.545Z,99140.49
2023-04-25T01:18:43.293Z,99141.84
2023-04-25T01:21:11.570Z,99139.09
2023-04-25T01:23:39.381Z,99135.23
2023-04-25T01:26:06.069Z,99134.88
2023-04-25T01:28:34.062Z,99131.96
2023-04-25T01:31:00.865Z,99130.28
2023-04-25T01:33:27.553Z,99123.79
2023-04-25T01:35:54.362Z,99124.10
2023-04-25T01:38:21.057Z,99120.99
2023-04-25T01:40:50.659Z,99119.10
2023-04-25T01:43:19.640Z,99120.33
2023-04-25T01:45:46.412Z,99121.60
2023-04-25T01:48:13.969Z,99122.31
2023-04-25T01:50:41.070Z,99120.90
2023-04-25T01:53:08.109Z,99120.37
2023-04-25T01:55:34.763Z,99122.64
2023-04-25T01:58:10.377Z,99119.55
2023-04-25T02:00:53.779Z,99117.95
2023-04-25T02:03:21.021Z,99117.27
2023-04-25T02:05:47.981Z,99114.73
2023-04-25T02:08:14.827Z,99114.67
2023-04-25T02:10:41.787Z,99113.19
2023-04-25T02:13:17.817Z,99114.54
2023-04-25T02:16:11.505Z,99110.30
2023-04-25T02:18:40.281Z,99111.47
2023-04-25T02:21:07.246Z,99112.41
2023-04-25T02:23:34.067Z,99107.48
2023-04-25T02:26:00.864Z,99105.77
2023-04-25T02:28:27.813Z,99109.93
2023-04-25T02:30:55.436Z,99108.02
2023-04-25T02:33:24.304Z,99105.70
2023-04-25T02:35:51.070Z,99108.19
2023-04-25T02:38:17.857Z,99102.89
2023-04-25T02:40:44.543Z,99102.92
2023-04-25T02:43:11.204Z,99102.41
2023-04-25T02:45:38.855Z,99102.69
2023-04-25T02:48:05.987Z,99104.91
2023-04-25T02:50:32.782Z,99099.15
2023-04-25T02:52:59.818Z,99100.81
2023-04-25T02:55:30.094Z,99101.02
2023-04-25T02:57:57.122Z,99099.96
2023-04-25T03:00:37.578Z,99101.33
2023-04-25T03:03:04.460Z,99104.14
2023-04-25T03:05:31.167Z,99104.23
2023-04-25T03:07:57.823Z,99105.23
2023-04-25T03:10:25.061Z,99105.66
2023-04-25T03:12:51.989Z,99105.05
2023-04-25T03:15:19.687Z,99101.24
2023-04-25T03:17:46.462Z,99102.04
2023-04-25T03:20:13.496Z,99099.86
2023-04-25T03:22:40.410Z,99095.50
2023-04-25T03:25:08.119Z,99098.34
2023-04-25T03:27:35.352Z,99096.37
2023-04-25T03:30:02.742Z,99095.79
2023-04-25T03:32:29.652Z,99094.86
2023-04-25T03:34:56.573Z,99093.89
2023-04-25T03:37:24.490Z,99093.82
2023-04-25T03:39:51.176Z,99092.11
2023-04-25T03:42:18.673Z,99088.30
2023-04-25T03:44:45.540Z,99087.32
2023-04-25T03:47:13.700Z,99084.92
2023-04-25T03:49:40.352Z,99083.36
2023-04-25T03:52:07.066Z,99086.79
2023-04-25T03:54:36.655Z,99083.27
2023-04-25T03:57:06.601Z,99085.05
2023-04-25T03:59:35.505Z,99076.54
2023-04-25T04:02:02.706Z,99078.66
2023-04-25T04:04:31.331Z,99075.79
2023-04-25T04:06:58.617Z,99070.95
2023-04-25T04:09:28.562Z,99061.05
2023-04-25T04:11:57.241Z,99052.35
2023-04-25T04:14:23.940Z,99043.27
2023-04-25T04:16:52.285Z,99036.68
2023-04-25T04:19:19.259Z,99029.46
2023-04-25T04:21:53.056Z,99019.59
2023-04-25T04:24:19.726Z,99011.39
2023-04-25T04:27:00.643Z,99002.46
2023-04-25T04:29:34.541Z,98988.99
2023-04-25T04:32:09.746Z,98983.98
2023-04-25T04:34:36.930Z,98980.52
2023-04-25T04:37:03.971Z,98976.55
2023-04-25T04:39:30.883Z,98976.64
2023-04-25T04:42:09.825Z,98973.83
2023-04-25T04:44:55.968Z,98974.30
2023-04-25T04:47:35.133Z,98975.19
2023-04-25T04:50:17.268Z,98976.45
2023-04-25T04:53:16.352Z,98975.37
2023-04-25T04:55:57.563Z,98973.36
2023-04-25T04:58:42.896Z,98974.05
2023-04-25T05:01:28.347Z,98971.64
2023-04-25T05:04:02.406Z,98971.88
2023-04-25T05:06:49.167Z,98974.16
2023-04-25T05:09:34.581Z,98974.58
2023-04-25T05:12:16.167Z,98971.63
2023-04-25T05:15:14.976Z,98970.90
2023-04-25T05:18:00.562Z,98966.32
2023-04-25T05:20:35.236Z,98961.54
2023-04-25T05:23:02.116Z,98959.86
2023-04-25T05:25:52.044Z,98962.27
2023-04-25T05:28:44.823Z,98961.27
2023-04-25T05:31:29.274Z,98956.09
2023-04-25T05:34:10.505Z,98955.14
2023-04-25T05:36:44.434Z,98955.24
2023-04-25T05:39:11.625Z,98951.92
2023-04-25T05:42:16.826Z,98952.55
2023-04-25T05:45:22.135Z,98949.10
2023-04-25T05:47:58.614Z,98946.21
2023-04-25T05:51:04.722Z,98946.49
2023-04-25T05:53:42.491Z,98944.63
2023-04-25T05:56:09.414Z,98937.27
2023-04-25T05:58:36.260Z,98936.77
2023-04-25T06:01:03.822Z,98935.73
2023-04-25T06:03:31.507Z,98935.43
2023-04-25T06:05:58.894Z,98929.88
2023-04-25T06:08:26.187Z,98928.11
2023-04-25T06:10:52.861Z,98926.11
2023-04-25T06:13:19.605Z,98924.70
2023-04-25T06:15:46.596Z,98922.92
2023-04-25T06:18:13.521Z,98918.80
2023-04-25T06:20:40.886Z,98916.17
2023-04-25T06:23:07.694Z,98914.07
2023-04-25T06:25:46.616Z,98909.70
2023-04-25T06:28:13.544Z,98909.30
2023-04-25T06:30:41.542Z,98906.43
2023-04-25T06:33:11.311Z,98903.63
2023-04-25T06:35:38.283Z,98899.85
2023-04-25T06:38:05.382Z,98894.23
2023-04-25T06:40:32.706Z,98892.80
2023-04-25T06:42:59.796Z,98893.26
2023-04-25T06:45:37.456Z,98892.05
2023-04-25T06:48:04.706Z,98890.70
2023-04-25T06:50:31.704Z,98890.92
2023-04-25T06:52:58.482Z,98886.98
2023-04-25T06:55:25.495Z,98880.20
2023-04-25T06:58:12.085Z,98881.96
2023-04-25T07:00:50.951Z,98880.53
2023-04-25T07:03:19.758Z,98876.20
2023-04-25T07:05:47.346Z,98874.80
2023-04-25T07:11:03.098Z,98874.52
2023-04-25T07:13:29.920Z,98868.14
2023-04-25T07:15:57.959Z,98869.42
2023-04-25T07:18:24.814Z,98866.05
2023-04-25T07:20:52.832Z,98870.82
2023-04-25T07:23:19.781Z,98869.40
2023-04-25T07:25:47.752Z,98870.91
2023-04-25T07:28:18.060Z,98865.59
2023-04-25T07:30:48.276Z,98862.55
2023-04-25T07:33:15.086Z,98864.50
2023-04-25T07:35:42.111Z,98862.50
2023-04-25T07:38:09.109Z,98858.77
2023-04-25T07:40:36.335Z,98857.88
2023-04-25T07:43:06.464Z,98856.06
2023-04-25T07:45:38.688Z,98854.33
2023-04-25T07:48:06.020Z,98853.81
2023-04-25T07:50:33.343Z,98853.48
2023-04-25T07:53:00.280Z,98850.91
2023-04-25T07:55:31.687Z,98849.63
2023-04-25T07:58:09.212Z,98844.69
2023-04-25T08:00:37.514Z,98844.45
2023-04-25T08:03:40.018Z,98847.20
2023-04-25T08:06:11.876Z,98844.48
2023-04-25T08:08:46.618Z,98843.36
2023-04-25T08:11:14.596Z,98841.61
2023-04-25T08:13:41.414Z,98837.64
2023-04-25T08:16:08.202Z,98836.80
2023-04-25T08:18:35.359Z,98841.16
2023-04-25T08:21:02.326Z,98841.54
2023-04-25T08:23:29.114Z,98837.55
2023-04-25T08:26:05.971Z,98840.67
2023-04-25T08:28:33.967Z,98839.09
2023-04-25T08:31:01.733Z,98837.52
2023-04-25T08:33:33.872Z,98834.84
2023-04-25T08:36:31.478Z,98825.69
2023-04-25T08:39:05.057Z,98827.39
2023-04-25T08:41:32.069Z,98828.25
2023-04-25T08:44:01.173Z,98819.90
2023-04-25T08:46:27.889Z,98821.71
2023-04-25T08:49:11.052Z,98825.62
2023-04-25T08:51:52.205Z,98824.05
2023-04-25T08:54:34.495Z,98820.73
2023-04-25T08:57:03.313Z,98817.80
2023-04-25T08:59:30.773Z,98819.89
2023-04-25T09:01:58.157Z,98816.30
2023-04-25T09:04:24.884Z,98817.15
2023-04-25T09:06:51.878Z,98814.98
2023-04-25T09:09:19.170Z,98818.17
2023-04-25T09:11:45.893Z,98810.84
2023-04-25T09:14:18.700Z,98814.58
2023-04-25T09:17:01.918Z,98813.30
2023-04-25T09:19:42.083Z,98810.43
2023-04-25T09:22:16.948Z,98807.26
2023-04-25T09:24:45.165Z,98810.15
2023-04-25T09:27:13.506Z,98810.56
2023-04-25T09:29:41.683Z,98806.86
2023-04-25T09:32:19.966Z,98805.85
2023-04-25T09:34:51.701Z,98802.75
2023-04-25T09:37:24.334Z,98807.85
2023-04-25T09:40:07.937Z,98803.84
2023-04-25T09:42:45.653Z,98802.05
2023-04-25T09:45:13.846Z,98787.33
2023-04-25T09:47:40.993Z,98792.98
2023-04-25T09:50:16.255Z,98786.52
2023-04-25T09:52:44.304Z,98782.95
2023-04-25T09:55:18.305Z,98780.88
2023-04-25T09:57:45.303Z,98781.67
2023-04-25T10:00:14.052Z,98783.73
2023-04-25T10:02:43.980Z,98780.67
2023-04-25T10:05:12.784Z,98779.41
2023-04-25T10:07:41.124Z,98776.00
2023-04-25T10:10:16.330Z,98776.47
2023-04-25T10:12:45.242Z,98772.73
2023-04-25T10:15:12.248Z,98766.71
2023-04-25T10:17:39.000Z,98765.45
2023-04-25T10:20:09.436Z,98764.75
2023-04-25T10:22:40.741Z,98770.41
2023-04-25T10:25:08.049Z,98766.62
2023-04-25T10:27:35.316Z,98769.26
2023-04-25T10:30:16.131Z,98766.92
2023-04-25T10:32:43.645Z,98761.80
2023-04-25T10:35:24.878Z,98753.99
2023-04-25T10:37:58.291Z,98762.15
2023-04-25T10:40:25.053Z,98760.77
2023-04-25T10:42:56.041Z,98762.48
2023-04-25T10:45:22.927Z,98763.38
2023-04-25T10:47:50.163Z,98757.52
2023-04-25T10:50:20.130Z,98754.05
2023-04-25T10:52:46.883Z,98753.42
2023-04-25T10:55:13.649Z,98754.30
2023-04-25T10:57:42.131Z,98749.86
2023-04-25T11:00:14.311Z,98745.89
2023-04-25T11:02:48.911Z,98743.97
2023-04-25T11:05:50.868Z,98741.39
2023-04-25T11:08:34.634Z,98738.40
2023-04-25T11:11:01.296Z,98737.14
2023-04-25T11:13:31.196Z,98739.54
2023-04-25T11:16:07.147Z,98734.71
2023-04-25T11:18:42.445Z,98733.79
2023-04-25T11:21:09.182Z,98732.69
2023-04-25T11:23:35.908Z,98727.86
2023-04-25T11:26:02.678Z,98722.13
2023-04-25T11:28:29.401Z,98724.91
2023-04-25T11:30:56.774Z,98720.74
2023-04-25T11:33:26.958Z,98718.96
2023-04-25T11:35:57.645Z,98714.52
2023-04-25T11:38:27.280Z,98714.25
2023-04-25T11:40:54.727Z,98710.67
2023-04-25T11:43:22.319Z,98709.43
2023-04-25T11:45:50.288Z,98705.73
2023-04-25T11:48:18.103Z,98701.73
2023-04-25T11:50:45.191Z,98701.55
2023-04-25T11:53:11.944Z,98699.06
2023-04-25T11:55:38.805Z,98697.07
2023-04-25T11:58:05.699Z,98695.81
2023-04-25T12:00:32.937Z,98698.95
2023-04-25T12:02:59.847Z,98697.47
2023-04-25T12:05:31.952Z,98690.11
2023-04-25T12:08:10.695Z,98695.41
2023-04-25T12:10:38.732Z,98690.98
2023-04-25T12:13:22.187Z,98689.70
2023-04-25T12:15:49.162Z,98689.10
2023-04-25T12:18:15.992Z,98692.60
2023-04-25T12:20:42.837Z,98690.90
2023-04-25T12:23:09.654Z,98690.90
2023-04-25T12:25:41.177Z,98689.23
2023-04-25T12:28:15.065Z,98694.89
2023-04-25T12:31:01.933Z,98690.09
2023-04-25T12:33:33.415Z,98688.20
2023-04-25T12:36:01.161Z,98688.88
2023-04-25T12:38:30.526Z,98683.45
2023-04-25T12:40:57.991Z,98683.70
2023-04-25T12:43:24.915Z,98679.30
2023-04-25T12:45:52.487Z,98679.30
2023-04-25T12:48:19.446Z,98674.91
2023-04-25T12:50:46.636Z,98666.46
2023-04-25T12:53:13.326Z,98662.42
2023-04-25T12:55:40.070Z,98662.89
2023-04-25T12:58:06.866Z,98660.97
2023-04-25T13:00:33.628Z,98656.20
2023-04-25T13:03:00.707Z,98651.34
2023-04-25T13:05:27.498Z,98656.47
2023-04-25T13:07:54.254Z,98650.64
2023-04-25T13:10:21.168Z,98656.23
2023-04-25T13:12:47.988Z,98652.66
2023-04-25T13:15:16.664Z,98652.70
2023-04-25T13:17:44.245Z,98647.19
2023-04-25T13:20:11.258Z,98649.99
2023-04-25T13:22:39.467Z,98646.64
2023-04-25T13:25:08.010Z,98644.67
2023-04-25T13:27:35.167Z,98639.51
2023-04-25T13:30:02.523Z,98640.62
2023-04-25T13:32:30.811Z,98638.49
2023-04-25T13:34:57.517Z,98641.91
2023-04-25T13:37:25.197Z,98640.59
2023-04-25T13:39:52.196Z,98633.20
2023-04-25T13:42:19.259Z,98636.73
2023-04-25T13:44:46.288Z,98631.54
2023-04-25T13:47:13.250Z,98627.89
2023-04-25T13:49:40.081Z,98627.17
2023-04-25T13:52:07.351Z,98624.45
2023-04-25T13:54:34.188Z,98624.01
2023-04-25T13:57:01.018Z,98619.91
2023-04-25T13:59:28.258Z,98616.27
2023-04-25T14:01:55.064Z,98612.63
2023-04-25T14:04:21.884Z,98614.08
2023-04-25T14:06:48.753Z,98609.49
2023-04-25T14:09:16.273Z,98610.09
2023-04-25T14:11:43.034Z,98614.98
2023-04-25T14:14:10.221Z,98612.20
2023-04-25T14:16:36.942Z,98612.38
2023-04-25T14:19:04.346Z,98608.11
2023-04-25T14:21:33.387Z,98611.98
2023-04-25T14:24:00.153Z,98609.73
2023-04-25T14:26:26.861Z,98612.83
2023-04-25T14:28:53.846Z,98617.39
2023-04-25T14:31:20.986Z,98613.70
2023-04-25T14:33:47.886Z,98614.70
2023-04-25T14:36:15.315Z,98614.92
2023-04-25T14:38:41.988Z,98604.11
2023-04-25T14:41:08.736Z,98605.85
2023-04-25T14:43:35.391Z,98605.02
2023-04-25T14:46:02.851Z,98607.73
2023-04-25T14:48:30.651Z,98605.10
2023-04-25T14:50:57.726Z,98600.17
2023-04-25T14:53:24.673Z,98602.60
2023-04-25T14:55:51.337Z,98605.56
2023-04-25T14:58:18.289Z,98604.11
2023-04-25T15:00:45.344Z,98602.48
2023-04-25T15:03:14.129Z,98602.85
2023-04-25T15:05:41.682Z,98598.60
2023-04-25T15:08:08.719Z,98599.19
2023-04-25T15:10:35.724Z,98593.26
2023-04-25T15:13:02.865Z,98594.54
2023-04-25T15:15:29.602Z,98598.08
2023-04-25T15:17:59.101Z,98599.66
2023-04-25T15:20:26.303Z,98596.91
2023-04-25T15:22:53.070Z,98599.04
2023-04-25T15:25:19.770Z,98598.25
2023-04-25T15:27:49.083Z,98599.02
2023-04-25T15:30:16.470Z,98598.93
2023-04-25T15:32:43.970Z,98596.09
2023-04-25T15:35:11.318Z,98596.77
2023-04-25T15:37:38.281Z,98596.98
2023-04-25T15:40:25.954Z,98588.92
2023-04-25T15:42:52.784Z,98596.58
2023-04-25T15:45:21.555Z,98593.00
2023-04-25T15:47:48.336Z,98589.77
2023-04-25T15:50:16.057Z,98592.77
2023-04-25T15:52:43.619Z,98595.16
2023-04-25T15:55:10.544Z,98592.34
2023-04-25T15:57:37.380Z,98590.67
2023-04-25T16:00:08.978Z,98591.80
2023-04-25T16:02:39.049Z,98590.03
2023-04-25T16:05:06.282Z,98589.08
2023-04-25T16:07:33.477Z,98590.85
2023-04-25T16:10:00.564Z,98592.35
2023-04-25T16:12:28.652Z,98595.25
2023-04-25T16:14:56.142Z,98592.75
2023-04-25T16:17:22.800Z,98592.27
2023-04-25T16:19:50.418Z,98596.09
2023-04-25T16:22:18.184Z,98598.40
2023-04-25T16:24:45.026Z,98597.49
2023-04-25T16:27:11.815Z,98601.64
2023-04-25T16:29:38.770Z,98601.17
2023-04-25T16:32:05.709Z,98604.51
2023-04-25T16:34:32.984Z,98603.67
2023-04-25T16:36:59.944Z,98603.80
2023-04-25T16:39:26.872Z,98606.83
2023-04-25T16:41:53.772Z,98607.89
2023-04-25T16:44:20.707Z,98611.16
2023-04-25T16:46:47.594Z,98612.11
2023-04-25T16:49:14.972Z,98613.33
2023-04-25T16:51:41.716Z,98616.77
2023-04-25T16:54:08.514Z,98620.03
2023-04-25T16:56:35.418Z,98624.34
2023-04-25T16:59:02.203Z,98621.09
2023-04-25T17:01:29.274Z,98625.29
2023-04-25T17:03:56.216Z,98626.02
2023-04-25T17:06:23.324Z,98625.30
2023-04-25T17:08:50.255Z,98627.72
2023-04-25T17:11:17.467Z,98633.95
2023-04-25T17:13:45.077Z,98633.03
2023-04-25T17:16:13.691Z,98636.83
2023-04-25T17:18:41.682Z,98641.28
2023-04-25T17:21:08.926Z,98643.62
2023-04-25T17:23:35.955Z,98643.98
2023-04-25T17:26:02.641Z,98651.91
2023-04-25T17:28:29.337Z,98654.44
2023-04-25T17:30:57.531Z,98656.45
2023-04-25T17:33:26.987Z,98663.15
2023-04-25T17:35:54.510Z,98664.59
2023-04-25T17:38:21.758Z,98670.73
2023-04-25T17:40:48.488Z,98674.67
2023-04-25T17:43:15.262Z,98677.23
2023-04-25T17:45:41.922Z,98683.11
2023-04-25T17:48:08.838Z,98686.84
2023-04-25T17:50:35.812Z,98690.81
2023-04-25T17:53:05.548Z,98691.13
2023-04-25T17:55:32.369Z,98692.91
2023-04-25T17:57:59.028Z,98691.43
2023-04-25T18:00:25.707Z,98695.23
2023-04-25T18:02:52.841Z,98695.35
2023-04-25T18:05:20.194Z,98699.50
2023-04-25T18:07:46.956Z,98700.61
2023-04-25T18:10:14.387Z,98706.45
2023-04-25T18:12:41.127Z,98706.38
2023-04-25T18:15:09.307Z,98706.80
2023-04-25T18:17:45.549Z,98708.90
2023-04-25T18:20:15.584Z,98713.40
2023-04-25T18:22:43.054Z,98713.67
2023-04-25T18:25:13.822Z,98712.44
2023-04-25T18:27:40.799Z,98712.63
2023-04-25T18:30:09.050Z,98716.50
2023-04-25T18:32:35.801Z,98715.77
2023-04-25T18:35:03.506Z,98716.64
2023-04-25T18:37:30.227Z,98713.91
2023-04-25T18:39:57.252Z,98709.50
2023-04-25T18:42:24.196Z,98708.80
2023-04-25T18:44:51.173Z,98715.55
2023-04-25T18:47:18.000Z,98712.08
2023-04-25T18:49:45.565Z,98715.18
2023-04-25T18:52:12.825Z,98719.52
2023-04-25T18:54:39.712Z,98722.27
2023-04-25T18:57:06.477Z,98725.23
2023-04-25T18:59:33.636Z,98723.65
2023-04-25T19:02:05.352Z,98726.83
2023-04-25T19:04:32.688Z,98723.14
2023-04-25T19:06:59.829Z,98724.06
2023-04-25T19:09:26.684Z,98722.28
2023-04-25T19:11:53.427Z,98722.65
2023-04-25T19:14:20.069Z,98720.82
2023-04-25T19:16:47.156Z,98718.98
2023-04-25T19:19:13.948Z,98722.45
2023-04-25T19:21:41.748Z,98718.55
2023-04-25T19:24:09.012Z,98720.10
2023-04-25T19:27:52.559Z,98724.58
2023-04-25T19:30:19.453Z,98717.23
2023-04-25T19:32:46.242Z,98722.73
2023-04-25T19:35:13.490Z,98721.58
2023-04-25T19:37:46.193Z,98723.14
2023-04-25T19:40:17.522Z,98724.10
2023-04-25T19:42:44.676Z,98721.76
2023-04-25T19:45:11.823Z,98721.55
2023-04-25T19:47:38.881Z,98719.63
2023-04-25T19:50:06.428Z,98715.95
2023-04-25T19:52:34.783Z,98718.15
2023-04-25T19:55:03.347Z,98721.10
2023-04-25T19:57:33.591Z,98723.30
2023-04-25T20:00:02.115Z,98721.64
2023-04-25T20:02:39.514Z,98722.92
2023-04-25T20:05:07.228Z,98726.14
2023-04-25T20:07:34.405Z,98724.55
2023-04-25T20:10:06.671Z,98726.14
2023-04-25T20:12:37.807Z,98727.10
2023-04-25T20:15:05.223Z,98730.73
2023-04-25T20:17:32.041Z,98731.61
2023-04-25T20:19:58.759Z,98733.66
2023-04-25T20:22:25.836Z,98734.45
2023-04-25T20:24:52.806Z,98733.38
2023-04-25T20:27:19.495Z,98736.80
2023-04-25T20:29:46.178Z,98742.02
2023-04-25T20:32:12.974Z,98740.17
2023-04-25T20:34:39.872Z,98738.02
2023-04-25T20:37:08.577Z,98736.38
2023-04-25T20:39:35.917Z,98735.31
2023-04-25T20:42:03.084Z,98733.02
2023-04-25T20:44:29.800Z,98733.10
2023-04-25T20:46:56.514Z,98728.48
2023-04-25T20:49:23.202Z,98727.25
2023-04-25T20:51:49.970Z,98725.23
2023-04-25T20:54:16.716Z,98724.58
2023-04-25T20:56:43.396Z,98728.31
2023-04-25T20:59:10.079Z,98727.65
2023-04-25T21:01:36.923Z,98727.35
2023-04-25T21:04:04.057Z,98724.55
2023-04-25T21:06:31.514Z,98727.33
2023-04-25T21:08:58.214Z,98728.52
2023-04-25T21:11:24.883Z,98726.48
2023-04-25T21:13:52.385Z,98726.25
2023-04-25T21:16:19.188Z,98726.79
2023-04-25T21:18:45.997Z,98726.34
2023-04-25T21:21:12.701Z,98724.94
2023-04-25T21:23:39.357Z,98727.65
2023-04-25T21:26:06.358Z,98727.02
2023-04-25T21:28:33.206Z,98725.68
2023-04-25T21:30:59.982Z,98724.23
2023-04-25T21:33:26.877Z,98720.66
2023-04-25T21:35:53.724Z,98717.54
2023-04-25T21:38:20.483Z,98716.78
2023-04-25T21:40:47.196Z,98718.17
2023-04-25T21:43:13.979Z,98713.77
2023-04-25T21:46:02.079Z,98710.73
2023-04-25T21:48:27.387Z,98714.59
2023-04-25T21:50:55.817Z,98713.96
2023-04-25T21:53:22.469Z,98713.34
2023-04-25T21:55:49.309Z,98712.66
2023-04-25T21:58:16.031Z,98710.05
2023-04-25T22:00:42.678Z,98712.25
2023-04-25T22:03:09.669Z,98707.25
2023-04-25T22:05:37.066Z,98706.55
2023-04-25T22:08:03.948Z,98704.45
2023-04-25T22:10:31.459Z,98703.20
2023-04-25T22:12:58.506Z,98701.67
2023-04-25T22:15:25.421Z,98702.09
2023-04-25T22:17:52.467Z,98697.27
2023-04-25T22:20:23.102Z,98696.98
2023-04-25T22:22:50.376Z,98696.13
2023-04-25T22:25:17.225Z,98694.16
2023-04-25T22:27:43.967Z,98690.08
2023-04-25T22:30:13.286Z,98693.20
2023-04-25T22:32:40.206Z,98694.35
2023-04-25T22:35:07.441Z,98690.69
2023-04-25T22:37:35.893Z,98695.19
2023-04-25T22:40:09.577Z,98685.95
2023-04-25T22:42:38.256Z,98691.11
2023-04-25T22:45:08.489Z,98691.28
2023-04-25T22:47:36.389Z,98689.32
2023-04-25T22:50:06.612Z,98690.36
2023-04-25T22:52:36.388Z,98690.00
2023-04-25T22:55:03.423Z,98689.25
2023-04-25T22:57:30.489Z,98689.42
2023-04-25T22:59:57.770Z,98688.45
2023-04-25T23:02:25.178Z,98688.42
2023-04-25T23:04:53.342Z,98688.75
2023-04-25T23:07:20.659Z,98689.35
2023-04-25T23:09:47.412Z,98687.97
2023-04-25T23:12:14.154Z,98686.69
2023-04-25T23:14:40.896Z,98686.52
2023-04-25T23:17:07.941Z,98685.05
2023-04-25T23:19:34.733Z,98686.83
2023-04-25T23:22:01.906Z,98687.73
2023-04-25T23:24:28.948Z,98684.55
2023-04-25T23:26:55.843Z,98682.23
2023-04-25T23:29:22.705Z,98681.92
2023-04-25T23:31:49.357Z,98678.03
2023-04-25T23:34:16.204Z,98680.25
2023-04-25T23:36:42.943Z,98675.30
2023-04-25T23:39:10.685Z,98676.33
2023-04-25T23:41:37.870Z,98680.41
2023-04-25T23:44:07.789Z,98681.40
2023-04-25T23:46:35.220Z,98682.20
2023-04-25T23:49:04.898Z,98680.73
2023-04-25T23:51:32.425Z,98679.83
2023-04-25T23:53:59.168Z,98677.91
2023-04-25T23:56:26.391Z,98676.67
2023-04-25T23:58:53.283Z,98676.34
